Time;durP1;ratioP1;P1;durP2;ratioP2;P2;SDS_P1;SDS_P2;PMS_P1;PMS_P2;Temp;Humidity;BMP_temperature;BMP_pressure;BME280_temperature;BME280_humidity;BME280_pressure;Samples;Min_cycle;Max_cycle;Signal;HPM_P1;HPM_P2
2023/01/17 00:00:25;;;;;;;3.53;1.40;;;5.70;99.90;;;;;;4945262;29;20516;-46
2023/01/17 00:02:52;;;;;;;2.40;1.70;;;5.70;99.90;;;;;;4959019;29;20444;-41
2023/01/17 00:10:49;;;;;;;3.47;1.50;;;5.70;99.90;;;;;;4977556;29;20490;-47
2023/01/17 00:13:16;;;;;;;2.03;1.60;;;5.70;99.90;;;;;;4977536;29;20468;-47
2023/01/17 00:15:43;;;;;;;3.90;1.87;;;5.60;99.90;;;;;;4978236;29;20488;-45
2023/01/17 00:18:10;;;;;;;2.77;1.70;;;5.60;99.90;;;;;;4977515;29;20503;-46
2023/01/17 00:26:24;;;;;;;2.47;2.10;;;5.50;99.90;;;;;;4937164;29;20446;-45
2023/01/17 01:35:47;;;;;;;1.40;1.30;;;5.10;99.90;;;;;;4958075;28;20424;-44
2023/01/17 01:38:13;;;;;;;1.60;1.37;;;5.10;99.90;;;;;;4968643;29;20490;-48
2023/01/17 01:40:45;;;;;;;4.63;2.23;;;5.10;99.90;;;;;;4976834;29;20458;-45
2023/01/17 01:43:16;;;;;;;7.13;3.10;;;5.10;99.90;;;;;;4976892;29;20494;-43
2023/01/17 01:45:48;;;;;;;5.27;2.50;;;5.10;99.90;;;;;;4977045;29;20506;-49
2023/01/17 01:48:26;;;;;;;1.80;1.50;;;5.10;99.90;;;;;;4976037;29;20436;-46
2023/01/17 01:50:53;;;;;;;4.20;2.20;;;5.10;99.90;;;;;;4976342;29;20436;-44
2023/01/17 01:53:23;;;;;;;1.90;1.27;;;5.00;99.90;;;;;;4976064;29;20444;-47
2023/01/17 01:55:51;;;;;;;5.63;2.13;;;5.00;99.90;;;;;;4976205;29;20478;-46
2023/01/17 01:58:23;;;;;;;3.50;1.67;;;5.10;99.90;;;;;;4963440;29;20470;-45
2023/01/17 02:00:51;;;;;;;3.40;1.77;;;5.10;99.90;;;;;;4966460;29;20467;-50
2023/01/17 02:03:21;;;;;;;2.43;1.63;;;5.10;99.90;;;;;;4963096;29;20456;-44
2023/01/17 02:05:48;;;;;;;2.50;1.70;;;5.10;99.90;;;;;;4970806;29;20492;-47
2023/01/17 02:08:18;;;;;;;6.20;2.43;;;5.10;99.90;;;;;;4964472;29;20976;-49
2023/01/17 02:10:45;;;;;;;3.93;2.40;;;5.10;99.90;;;;;;4957234;29;20478;-45
2023/01/17 02:13:15;;;;;;;1.93;1.57;;;5.10;99.90;;;;;;4957031;29;20436;-46
2023/01/17 02:15:54;;;;;;;2.80;1.63;;;5.10;99.90;;;;;;4957699;29;20428;-48
2023/01/17 02:18:30;;;;;;;2.80;1.53;;;5.10;99.90;;;;;;4958001;29;20448;-43
2023/01/17 02:21:18;;;;;;;1.50;1.40;;;5.20;99.90;;;;;;4957177;29;20512;-44
2023/01/17 02:24:23;;;;;;;2.07;1.43;;;5.20;99.90;;;;;;4958416;29;20430;-49
2023/01/17 02:26:58;;;;;;;2.90;2.13;;;5.20;99.90;;;;;;4956815;29;20487;-46
2023/01/17 02:30:01;;;;;;;2.10;1.40;;;5.10;99.90;;;;;;4960298;29;20436;-45
2023/01/17 02:32:37;;;;;;;3.33;1.43;;;5.10;99.90;;;;;;4959414;29;20503;-45
2023/01/17 02:35:09;;;;;;;3.30;1.70;;;5.10;99.90;;;;;;4960328;29;20455;-45
2023/01/17 02:37:43;;;;;;;3.63;2.50;;;5.10;99.90;;;;;;4960819;29;20455;-42
2023/01/17 02:40:17;;;;;;;2.43;1.57;;;5.10;99.90;;;;;;4960751;29;20468;-49
2023/01/17 02:42:50;;;;;;;2.90;1.80;;;5.10;99.90;;;;;;4960849;29;20464;-47
2023/01/17 02:45:18;;;;;;;3.10;2.50;;;5.10;99.90;;;;;;4960859;29;20559;-47
2023/01/17 02:47:46;;;;;;;2.57;1.50;;;5.10;99.90;;;;;;4960943;29;20457;-50
2023/01/17 02:50:17;;;;;;;3.13;1.93;;;5.10;99.90;;;;;;4951889;29;20512;-43
2023/01/17 02:52:56;;;;;;;1.87;1.47;;;5.10;99.90;;;;;;4960459;29;20440;-49
2023/01/17 02:55:35;;;;;;;2.30;1.67;;;5.10;99.90;;;;;;4960279;29;20429;-47
2023/01/17 02:58:14;;;;;;;2.07;1.33;;;5.10;99.90;;;;;;4960527;29;20452;-52
2023/01/17 03:00:50;;;;;;;1.50;1.20;;;5.10;99.90;;;;;;4959973;29;20441;-49
2023/01/17 03:03:26;;;;;;;3.83;1.63;;;5.10;99.90;;;;;;4960962;29;20459;-49
2023/01/17 03:05:58;;;;;;;3.90;1.37;;;5.20;99.90;;;;;;4960431;29;20475;-45
2023/01/17 03:08:26;;;;;;;5.03;2.17;;;5.20;99.90;;;;;;4960290;29;20500;-45
2023/01/17 03:10:54;;;;;;;3.00;1.63;;;5.20;99.90;;;;;;4959845;29;20492;-41
2023/01/17 03:13:21;;;;;;;2.00;1.43;;;5.20;99.90;;;;;;4960966;29;20505;-43
2023/01/17 03:15:47;;;;;;;3.10;1.90;;;5.30;99.90;;;;;;4959821;29;20465;-47
2023/01/17 03:18:16;;;;;;;2.90;2.10;;;5.30;99.90;;;;;;4960050;29;20473;-46
2023/01/17 03:20:44;;;;;;;4.03;2.00;;;5.30;99.90;;;;;;4960145;28;20461;-45
2023/01/17 03:23:11;;;;;;;2.40;2.00;;;5.30;99.90;;;;;;4960410;29;20417;-50
2023/01/17 03:25:38;;;;;;;2.40;1.67;;;5.30;99.90;;;;;;4960187;29;20508;-46
2023/01/17 03:28:05;;;;;;;5.00;1.70;;;5.30;99.90;;;;;;4959860;29;20503;-44
2023/01/17 03:30:32;;;;;;;2.37;1.50;;;5.40;99.90;;;;;;4960443;29;20461;-42
2023/01/17 03:32:59;;;;;;;1.83;1.30;;;5.40;99.90;;;;;;4959451;29;20461;-45
2023/01/17 03:35:27;;;;;;;2.20;1.43;;;5.40;99.90;;;;;;4959883;29;20449;-45
2023/01/17 03:37:55;;;;;;;3.57;1.70;;;5.50;99.90;;;;;;4959490;29;20451;-45
2023/01/17 03:40:22;;;;;;;2.30;1.37;;;5.50;99.90;;;;;;4958483;29;20464;-46
2023/01/17 03:42:48;;;;;;;1.80;1.20;;;5.60;99.90;;;;;;4958544;29;20448;-47
2023/01/17 03:45:15;;;;;;;2.47;1.67;;;5.60;99.90;;;;;;4959721;29;20464;-44
2023/01/17 03:47:42;;;;;;;1.80;1.50;;;5.60;99.90;;;;;;4959339;29;20461;-43
2023/01/17 03:50:11;;;;;;;2.30;1.50;;;5.60;99.90;;;;;;4958880;29;20460;-46
2023/01/17 03:52:38;;;;;;;1.43;1.20;;;5.60;99.90;;;;;;4958980;29;20473;-51
2023/01/17 03:55:08;;;;;;;1.80;1.30;;;5.70;99.90;;;;;;4959077;29;20472;-46
2023/01/17 03:57:34;;;;;;;2.43;1.40;;;5.70;99.90;;;;;;4958786;29;20476;-48
2023/01/17 04:00:01;;;;;;;3.43;1.40;;;5.70;99.90;;;;;;4957868;29;20448;-45
2023/01/17 04:02:28;;;;;;;2.17;1.00;;;5.70;99.90;;;;;;4958600;29;20456;-42
2023/01/17 04:04:55;;;;;;;2.27;1.47;;;5.80;99.90;;;;;;4958719;29;20456;-42
2023/01/17 04:07:22;;;;;;;1.93;1.20;;;5.70;99.90;;;;;;4959343;29;20457;-46
2023/01/17 04:09:49;;;;;;;1.43;1.23;;;5.80;99.90;;;;;;4958861;29;20467;-46
2023/01/17 04:12:17;;;;;;;1.70;0.90;;;5.80;99.90;;;;;;4958485;29;20538;-46
2023/01/17 04:14:44;;;;;;;1.00;0.80;;;5.80;99.90;;;;;;4958615;29;20452;-46
2023/01/17 04:17:13;;;;;;;1.37;0.90;;;5.80;99.90;;;;;;4958451;29;20493;-42
2023/01/17 04:19:40;;;;;;;1.50;1.10;;;5.80;99.90;;;;;;4962436;28;20538;-48
2023/01/17 04:22:07;;;;;;;1.20;1.10;;;5.90;99.90;;;;;;4980962;28;20474;-47
2023/01/17 04:24:34;;;;;;;3.07;1.00;;;5.90;99.90;;;;;;4985852;28;21015;-46
2023/01/17 04:27:01;;;;;;;1.87;0.90;;;5.90;99.90;;;;;;4963064;29;20480;-46
2023/01/17 04:29:32;;;;;;;2.20;1.30;;;5.90;99.90;;;;;;4965650;29;20472;-41
2023/01/17 04:31:59;;;;;;;1.63;0.90;;;6.00;99.90;;;;;;4963573;29;20439;-45
2023/01/17 04:34:26;;;;;;;1.37;0.90;;;6.00;99.90;;;;;;4977800;29;20444;-47
2023/01/17 04:36:52;;;;;;;1.20;0.97;;;6.00;99.90;;;;;;4977226;28;20467;-48
2023/01/17 04:39:19;;;;;;;3.00;1.00;;;6.10;99.90;;;;;;4977711;29;20431;-46
2023/01/17 04:41:46;;;;;;;1.10;0.90;;;6.00;99.90;;;;;;4976600;29;20488;-48
2023/01/17 04:44:13;;;;;;;3.37;0.87;;;6.00;99.90;;;;;;4957741;29;20581;-45
2023/01/17 04:46:41;;;;;;;1.03;0.83;;;6.00;99.90;;;;;;4957767;29;20503;-42
2023/01/17 04:49:08;;;;;;;0.97;0.73;;;6.00;99.90;;;;;;4958044;28;20461;-43
2023/01/17 04:51:35;;;;;;;3.23;1.03;;;6.00;99.90;;;;;;4957626;29;20452;-47
2023/01/17 04:54:03;;;;;;;1.20;0.80;;;6.10;99.90;;;;;;4958219;29;20499;-48
2023/01/17 04:56:30;;;;;;;1.53;0.90;;;6.10;99.90;;;;;;4957849;29;20468;-46
2023/01/17 04:58:57;;;;;;;1.20;1.00;;;6.10;99.90;;;;;;4958244;29;20488;-44
2023/01/17 05:01:24;;;;;;;2.00;0.90;;;6.10;99.90;;;;;;4960147;29;20433;-48
2023/01/17 05:03:52;;;;;;;1.73;1.10;;;6.10;99.90;;;;;;4976986;29;20428;-49
2023/01/17 05:06:19;;;;;;;0.90;0.70;;;6.00;99.90;;;;;;4967864;29;21027;-49
2023/01/17 05:08:46;;;;;;;2.17;0.83;;;6.00;99.90;;;;;;4975363;29;20468;-46
2023/01/17 05:11:13;;;;;;;1.40;0.70;;;6.00;99.90;;;;;;4976435;29;20451;-49
2023/01/17 05:13:39;;;;;;;1.00;0.90;;;6.00;99.90;;;;;;4975931;29;20433;-47
2023/01/17 05:16:07;;;;;;;2.03;0.93;;;6.00;99.90;;;;;;4977031;29;20479;-46
2023/01/17 05:18:34;;;;;;;1.27;0.90;;;6.00;99.90;;;;;;4975995;29;20482;-44
2023/01/17 05:21:05;;;;;;;1.00;0.80;;;6.00;99.90;;;;;;4976654;29;20462;-46
2023/01/17 05:23:32;;;;;;;1.00;0.80;;;6.00;99.90;;;;;;4968601;29;20474;-49
2023/01/17 05:26:02;;;;;;;1.83;1.20;;;6.00;99.90;;;;;;4973353;29;20486;-44
2023/01/17 05:28:29;;;;;;;0.90;0.77;;;6.00;99.90;;;;;;4977086;29;20428;-42
2023/01/17 05:30:55;;;;;;;1.57;0.93;;;6.00;99.90;;;;;;4977624;29;20467;-50
2023/01/17 05:33:22;;;;;;;1.00;0.80;;;6.00;99.90;;;;;;4977647;29;20482;-51
2023/01/17 05:35:49;;;;;;;1.97;1.30;;;6.00;99.90;;;;;;4966564;29;20493;-44
2023/01/17 05:38:17;;;;;;;2.17;1.10;;;6.00;99.90;;;;;;4965958;29;20504;-46
2023/01/17 05:40:44;;;;;;;1.00;0.80;;;5.90;99.90;;;;;;4958852;29;20529;-46
2023/01/17 05:43:11;;;;;;;1.90;1.60;;;5.90;99.90;;;;;;4960751;29;20454;-43
2023/01/17 05:45:38;;;;;;;1.33;0.80;;;5.90;99.90;;;;;;4966212;29;20460;-47
2023/01/17 05:48:05;;;;;;;1.27;1.00;;;5.80;99.90;;;;;;4965315;29;20523;-45
2023/01/17 05:50:33;;;;;;;2.27;1.20;;;5.80;99.90;;;;;;4963164;28;20472;-48
2023/01/17 05:53:03;;;;;;;1.00;0.70;;;5.80;99.90;;;;;;4965547;29;20440;-49
2023/01/17 05:55:32;;;;;;;2.13;1.17;;;5.90;99.90;;;;;;4967849;29;20467;-44
2023/01/17 05:57:59;;;;;;;1.30;0.80;;;5.80;99.90;;;;;;4966709;29;20476;-44
2023/01/17 06:00:26;;;;;;;1.50;0.90;;;5.80;99.90;;;;;;4966522;28;20460;-45
2023/01/17 06:02:54;;;;;;;1.30;1.03;;;5.80;99.90;;;;;;4971273;29;20445;-47
2023/01/17 06:05:23;;;;;;;1.70;1.27;;;5.80;99.90;;;;;;4971109;29;20487;-43
2023/01/17 06:07:50;;;;;;;1.30;1.20;;;5.80;99.90;;;;;;4974461;29;20471;-46
2023/01/17 06:10:21;;;;;;;1.20;1.10;;;5.80;99.90;;;;;;4969513;29;20459;-47
2023/01/17 06:12:49;;;;;;;2.00;1.40;;;5.80;99.90;;;;;;4979928;29;20472;-45
2023/01/17 06:15:18;;;;;;;1.10;0.90;;;5.80;99.90;;;;;;4980444;29;20447;-41
2023/01/17 06:17:44;;;;;;;1.30;0.90;;;5.80;99.90;;;;;;4979745;29;21003;-43
2023/01/17 06:20:12;;;;;;;1.23;0.90;;;5.80;99.90;;;;;;4980898;29;20482;-48
2023/01/17 06:22:39;;;;;;;1.40;1.30;;;5.80;99.90;;;;;;4979316;29;20482;-45
2023/01/17 06:25:06;;;;;;;1.53;0.80;;;5.80;99.90;;;;;;4979592;29;20510;-42
2023/01/17 06:27:33;;;;;;;3.10;1.60;;;5.70;99.90;;;;;;4979514;29;20483;-41
2023/01/17 06:30:02;;;;;;;1.83;1.10;;;5.70;99.90;;;;;;4979355;29;20454;-44
2023/01/17 06:32:28;;;;;;;3.80;1.53;;;5.70;99.90;;;;;;4979515;29;20455;-47
2023/01/17 06:34:55;;;;;;;1.27;0.97;;;5.70;99.90;;;;;;4979626;29;20463;-46
2023/01/17 06:37:22;;;;;;;1.40;1.10;;;5.70;99.90;;;;;;4977760;29;20468;-44
2023/01/17 06:39:49;;;;;;;1.50;1.07;;;5.70;99.90;;;;;;4977494;28;20447;-47
2023/01/17 06:42:16;;;;;;;1.50;1.30;;;5.70;99.90;;;;;;4968206;29;20500;-49
2023/01/17 06:44:43;;;;;;;1.63;1.30;;;5.70;99.90;;;;;;4968925;29;20485;-50
2023/01/17 06:47:11;;;;;;;1.87;1.30;;;5.60;99.90;;;;;;4969173;29;21121;-49
2023/01/17 06:49:38;;;;;;;1.50;1.23;;;5.60;99.90;;;;;;4970256;29;20459;-44
2023/01/17 06:52:05;;;;;;;1.50;1.00;;;5.60;99.90;;;;;;4969331;29;20463;-47
2023/01/17 06:54:31;;;;;;;1.50;1.20;;;5.60;99.90;;;;;;4968564;29;20519;-41
2023/01/17 06:57:01;;;;;;;1.40;1.13;;;5.60;99.90;;;;;;4967363;29;20440;-44
2023/01/17 06:59:28;;;;;;;2.40;1.33;;;5.60;99.90;;;;;;4965601;29;20428;-47
2023/01/17 07:01:55;;;;;;;2.00;1.67;;;5.60;99.90;;;;;;4970633;29;20480;-49
2023/01/17 07:04:25;;;;;;;2.20;1.40;;;5.60;99.90;;;;;;4968664;29;20419;-47
2023/01/17 07:06:52;;;;;;;2.93;1.60;;;5.60;99.90;;;;;;4968390;29;20448;-50
2023/01/17 07:09:19;;;;;;;2.33;1.43;;;5.60;99.90;;;;;;4966358;29;20492;-42
2023/01/17 07:11:46;;;;;;;1.53;1.30;;;5.60;99.90;;;;;;4967309;29;20457;-46
2023/01/17 07:14:14;;;;;;;2.63;1.50;;;5.60;99.90;;;;;;4969424;28;20433;-45
2023/01/17 07:16:44;;;;;;;1.83;1.37;;;5.70;99.90;;;;;;4970664;28;20465;-47
2023/01/17 07:19:10;;;;;;;1.77;1.30;;;5.70;99.90;;;;;;4969209;29;20492;-48
2023/01/17 07:21:45;;;;;;;1.77;1.27;;;5.70;99.90;;;;;;4964272;29;20452;-44
2023/01/17 07:24:11;;;;;;;2.20;1.40;;;5.60;99.90;;;;;;4962597;29;20769;-51
2023/01/17 07:26:39;;;;;;;2.87;1.60;;;5.60;99.90;;;;;;4979191;29;20515;-49
2023/01/17 07:29:06;;;;;;;1.60;1.10;;;5.60;99.90;;;;;;4978942;29;20476;-52
2023/01/17 07:31:35;;;;;;;2.73;1.20;;;5.50;99.90;;;;;;4978380;29;20443;-45
2023/01/17 07:34:02;;;;;;;2.60;1.47;;;5.50;99.90;;;;;;4978402;29;20470;-47
2023/01/17 07:36:29;;;;;;;2.80;1.23;;;5.50;99.90;;;;;;4978552;29;20474;-50
2023/01/17 07:38:57;;;;;;;1.47;1.10;;;5.50;99.90;;;;;;4972243;29;20475;-47
2023/01/17 07:41:24;;;;;;;1.77;1.27;;;5.50;99.90;;;;;;4978273;29;20463;-41
2023/01/17 07:43:51;;;;;;;1.30;1.20;;;5.50;99.90;;;;;;4978686;29;20563;-48
2023/01/17 07:46:18;;;;;;;2.50;1.17;;;5.40;99.90;;;;;;4978661;29;20483;-43
2023/01/17 07:48:45;;;;;;;1.70;1.27;;;5.40;99.90;;;;;;4979002;29;21017;-42
2023/01/17 07:51:12;;;;;;;1.97;1.20;;;5.40;99.90;;;;;;4979175;29;20471;-47
2023/01/17 07:53:39;;;;;;;3.20;1.20;;;5.40;99.90;;;;;;4970928;29;20509;-43
2023/01/17 07:56:08;;;;;;;2.70;1.40;;;5.40;99.90;;;;;;4979021;29;20452;-47
2023/01/17 07:58:35;;;;;;;2.17;1.37;;;5.40;99.90;;;;;;4978513;29;20443;-45
2023/01/17 08:01:03;;;;;;;1.43;1.10;;;5.50;99.90;;;;;;4979225;29;20463;-44
2023/01/17 08:03:31;;;;;;;2.43;1.57;;;5.40;99.90;;;;;;4978027;29;20444;-45
2023/01/17 08:05:59;;;;;;;1.90;1.23;;;5.40;99.90;;;;;;4975840;29;20517;-48
2023/01/17 08:08:27;;;;;;;1.70;1.40;;;5.50;99.90;;;;;;4960990;29;20448;-45
2023/01/17 08:10:54;;;;;;;1.40;1.00;;;5.50;99.90;;;;;;4964678;29;20420;-50
2023/01/17 08:13:22;;;;;;;1.90;1.50;;;5.60;99.90;;;;;;4967812;29;20483;-44
2023/01/17 08:15:50;;;;;;;1.97;1.10;;;5.60;99.90;;;;;;4977645;29;20440;-48
2023/01/17 08:18:17;;;;;;;2.50;1.23;;;5.70;99.90;;;;;;4977349;29;20488;-47
2023/01/17 08:20:44;;;;;;;3.07;1.73;;;5.70;99.90;;;;;;4977521;29;20491;-43
2023/01/17 08:23:11;;;;;;;1.93;1.60;;;5.70;99.90;;;;;;4977696;29;20538;-51
2023/01/17 08:25:39;;;;;;;1.60;1.20;;;5.80;99.90;;;;;;4966793;29;20456;-47
2023/01/17 08:28:06;;;;;;;2.17;1.40;;;5.80;99.90;;;;;;4963403;29;20507;-50
2023/01/17 08:30:35;;;;;;;1.87;1.17;;;5.80;99.90;;;;;;4967470;29;20461;-48
2023/01/17 08:33:02;;;;;;;1.80;1.00;;;5.80;99.90;;;;;;4956639;29;20477;-46
2023/01/17 08:35:28;;;;;;;1.87;1.53;;;5.70;99.90;;;;;;4967659;29;20464;-48
2023/01/17 08:37:56;;;;;;;3.00;1.43;;;5.80;99.90;;;;;;4961508;29;20457;-45
2023/01/17 08:40:24;;;;;;;2.60;1.43;;;5.80;99.90;;;;;;4958153;29;20441;-43
2023/01/17 08:42:55;;;;;;;2.33;1.53;;;5.90;99.90;;;;;;4957762;29;20448;-46
2023/01/17 08:45:22;;;;;;;1.30;0.80;;;5.90;99.90;;;;;;4968803;29;20428;-43
2023/01/17 08:47:50;;;;;;;5.53;1.53;;;5.90;99.90;;;;;;4967583;29;20548;-47
2023/01/17 08:50:19;;;;;;;3.00;1.80;;;5.90;99.90;;;;;;4963966;29;20490;-42
2023/01/17 08:52:47;;;;;;;2.23;1.20;;;5.90;99.90;;;;;;4977003;29;20475;-48
2023/01/17 08:55:14;;;;;;;2.67;1.20;;;5.90;99.90;;;;;;4970846;29;20450;-49
2023/01/17 08:57:41;;;;;;;1.20;0.90;;;6.00;99.90;;;;;;4966934;29;20538;-45
2023/01/17 09:00:09;;;;;;;2.90;1.40;;;6.00;99.90;;;;;;4976095;29;20488;-46
2023/01/17 09:02:36;;;;;;;2.13;1.57;;;5.90;99.90;;;;;;4977805;29;20470;-43
2023/01/17 09:05:06;;;;;;;2.67;1.63;;;5.90;99.90;;;;;;4969781;28;20468;-51
2023/01/17 09:07:32;;;;;;;1.20;0.97;;;5.90;99.90;;;;;;4970644;29;20487;-50
2023/01/17 09:09:59;;;;;;;1.37;1.13;;;6.00;99.90;;;;;;4965302;28;20469;-47
2023/01/17 09:12:26;;;;;;;1.50;1.10;;;6.00;99.90;;;;;;4958148;29;20463;-48
2023/01/17 09:14:53;;;;;;;1.87;0.90;;;6.00;99.90;;;;;;4958235;29;20489;-44
2023/01/17 09:17:20;;;;;;;1.20;1.00;;;6.00;99.90;;;;;;4958533;28;20520;-43
2023/01/17 09:19:47;;;;;;;1.73;1.10;;;6.00;99.90;;;;;;4965166;28;20472;-48
2023/01/17 09:22:15;;;;;;;1.00;0.80;;;6.00;99.90;;;;;;4978890;29;20420;-43
2023/01/17 09:24:42;;;;;;;1.33;1.00;;;6.10;99.90;;;;;;4978544;29;20459;-45
2023/01/17 09:27:09;;;;;;;3.00;1.10;;;6.10;99.90;;;;;;4978397;29;20508;-49
2023/01/17 09:29:36;;;;;;;1.20;0.90;;;6.10;99.90;;;;;;4978977;29;20471;-42
2023/01/17 09:32:04;;;;;;;1.00;0.80;;;6.10;99.90;;;;;;4969381;29;20451;-40
2023/01/17 09:34:31;;;;;;;0.93;0.67;;;6.00;99.90;;;;;;4978375;29;20447;-46
2023/01/17 09:36:57;;;;;;;1.27;1.00;;;6.00;99.90;;;;;;4978827;28;20408;-45
2023/01/17 09:39:26;;;;;;;0.80;0.57;;;6.00;99.90;;;;;;4981720;29;20435;-42
2023/01/17 09:42:02;;;;;;;2.87;0.93;;;5.90;99.90;;;;;;4982640;28;20432;-42
2023/01/17 09:44:38;;;;;;;1.20;0.80;;;5.90;99.90;;;;;;4982875;28;20576;-50
2023/01/17 09:47:16;;;;;;;0.93;0.60;;;5.90;99.90;;;;;;4982644;29;20459;-46
2023/01/17 09:49:45;;;;;;;1.40;0.60;;;6.00;99.90;;;;;;4982077;29;20412;-44
2023/01/17 09:52:15;;;;;;;1.00;0.70;;;6.00;99.90;;;;;;4982285;29;20455;-42
2023/01/17 09:54:46;;;;;;;1.33;0.70;;;6.00;99.90;;;;;;4982586;29;20408;-40
2023/01/17 09:57:34;;;;;;;0.80;0.53;;;5.90;99.90;;;;;;4982697;29;20424;-39
2023/01/17 10:00:11;;;;;;;1.53;1.20;;;5.90;99.90;;;;;;4981983;29;20443;-42
2023/01/17 10:02:59;;;;;;;1.20;0.90;;;5.80;99.90;;;;;;4981754;29;20419;-44
2023/01/17 10:05:37;;;;;;;0.97;0.80;;;5.70;99.90;;;;;;4982032;29;20476;-43
2023/01/17 10:08:14;;;;;;;1.23;0.80;;;5.70;99.90;;;;;;4982263;29;20467;-41
2023/01/17 10:10:47;;;;;;;0.90;0.70;;;5.70;99.90;;;;;;4982106;29;20451;-42
2023/01/17 10:13:27;;;;;;;1.43;0.90;;;5.70;99.90;;;;;;4981805;29;20435;-42
2023/01/17 10:16:12;;;;;;;0.80;0.50;;;5.60;99.90;;;;;;4981685;29;20471;-44
2023/01/17 10:19:03;;;;;;;1.30;0.80;;;5.60;99.90;;;;;;4981872;29;20416;-45
2023/01/17 10:21:41;;;;;;;1.47;0.90;;;5.60;99.90;;;;;;4978305;29;20491;-46
2023/01/17 10:24:24;;;;;;;1.50;1.00;;;5.50;99.90;;;;;;4982167;29;20412;-46
2023/01/17 10:26:55;;;;;;;1.40;0.90;;;5.50;99.90;;;;;;4981758;29;20959;-41
2023/01/17 10:29:27;;;;;;;1.10;0.87;;;5.50;99.90;;;;;;4981516;29;20447;-47
2023/01/17 10:31:58;;;;;;;0.90;0.70;;;5.40;99.90;;;;;;4981457;29;20491;-46
2023/01/17 10:34:30;;;;;;;4.00;1.17;;;5.40;99.90;;;;;;4981476;29;20416;-48
2023/01/17 10:37:02;;;;;;;2.00;0.70;;;5.40;99.90;;;;;;4981273;29;20456;-49
2023/01/17 10:39:31;;;;;;;0.90;0.70;;;5.40;99.90;;;;;;4981644;29;20439;-42
2023/01/17 10:42:06;;;;;;;0.80;0.63;;;5.30;99.90;;;;;;4981013;29;20455;-46
2023/01/17 10:44:38;;;;;;;1.87;1.10;;;5.30;99.90;;;;;;4981481;29;20455;-46
2023/01/17 10:47:12;;;;;;;1.00;0.70;;;5.30;99.90;;;;;;4981167;29;20482;-45
2023/01/17 10:49:45;;;;;;;0.90;0.60;;;5.20;99.90;;;;;;4980223;28;20415;-43
2023/01/17 10:52:19;;;;;;;2.37;0.80;;;5.10;99.90;;;;;;4980956;28;20466;-43
2023/01/17 10:55:05;;;;;;;1.63;0.60;;;5.20;99.90;;;;;;4980835;29;20416;-47
2023/01/17 10:57:39;;;;;;;1.00;0.70;;;5.10;99.90;;;;;;4980654;29;20459;-43
2023/01/17 11:00:33;;;;;;;1.60;0.70;;;5.20;99.90;;;;;;4980995;29;20500;-49
2023/01/17 11:03:01;;;;;;;1.27;0.70;;;5.20;99.90;;;;;;4977720;29;20476;-48
2023/01/17 11:05:30;;;;;;;0.90;0.70;;;5.20;99.90;;;;;;4980748;29;20441;-42
2023/01/17 11:07:59;;;;;;;0.80;0.60;;;5.20;99.90;;;;;;4980339;29;20471;-47
2023/01/17 11:10:42;;;;;;;0.90;0.67;;;5.30;99.90;;;;;;4980136;29;20521;-46
2023/01/17 11:13:27;;;;;;;1.17;0.90;;;5.20;99.90;;;;;;4980155;29;20467;-48
2023/01/17 11:15:57;;;;;;;0.90;0.60;;;5.20;99.90;;;;;;4980080;29;20487;-43
2023/01/17 11:18:27;;;;;;;0.90;0.60;;;5.20;99.90;;;;;;4970292;29;20452;-43
2023/01/17 11:21:10;;;;;;;0.90;0.60;;;5.10;99.90;;;;;;4980089;29;20447;-45
2023/01/17 11:23:41;;;;;;;0.80;0.60;;;5.00;99.90;;;;;;4980581;29;20499;-44
2023/01/17 11:26:11;;;;;;;1.00;0.80;;;4.90;99.90;;;;;;4980481;29;20422;-42
2023/01/17 11:28:40;;;;;;;1.80;0.80;;;4.90;99.90;;;;;;4980555;29;20499;-40
2023/01/17 11:31:24;;;;;;;0.87;0.53;;;4.70;99.90;;;;;;4980720;29;20459;-44
2023/01/17 11:34:06;;;;;;;0.80;0.50;;;4.60;99.90;;;;;;4980407;29;20474;-44
2023/01/17 11:36:34;;;;;;;1.10;0.67;;;4.50;99.90;;;;;;4980600;29;20431;-43
2023/01/17 11:39:02;;;;;;;1.17;0.60;;;4.30;99.90;;;;;;4980313;29;20475;-43
2023/01/17 11:41:34;;;;;;;1.00;0.60;;;4.30;99.90;;;;;;4980585;29;20461;-47
2023/01/17 11:44:06;;;;;;;0.80;0.60;;;4.20;99.90;;;;;;4980461;29;20475;-43
2023/01/17 11:46:34;;;;;;;0.90;0.70;;;4.20;99.90;;;;;;4980272;29;20424;-46
2023/01/17 11:49:01;;;;;;;0.90;0.63;;;4.20;99.90;;;;;;4980173;29;20495;-44
2023/01/17 11:51:31;;;;;;;0.80;0.57;;;4.20;99.90;;;;;;4980317;29;20451;-44
2023/01/17 11:54:13;;;;;;;1.20;1.00;;;4.00;99.90;;;;;;4980353;29;20510;-42
2023/01/17 11:56:43;;;;;;;1.43;1.10;;;4.00;99.90;;;;;;4980377;29;20466;-44
2023/01/17 11:59:23;;;;;;;2.37;1.10;;;4.00;99.90;;;;;;4980722;29;20480;-44
2023/01/17 12:02:04;;;;;;;1.67;0.70;;;4.00;99.90;;;;;;4979871;28;20428;-43
2023/01/17 12:04:38;;;;;;;1.27;0.83;;;4.10;99.90;;;;;;4980257;29;20478;-43
2023/01/17 12:07:20;;;;;;;1.00;0.60;;;4.20;99.90;;;;;;4979775;29;20432;-48
2023/01/17 12:09:54;;;;;;;2.30;1.27;;;4.20;99.90;;;;;;4979744;29;20467;-48
2023/01/17 12:15:30;;;;;;;2.70;1.03;;;4.30;99.90;;;;;;4979871;29;20533;-43
2023/01/17 12:18:14;;;;;;;1.80;1.07;;;4.40;99.90;;;;;;4980104;29;20454;-44
2023/01/17 12:20:48;;;;;;;2.77;1.47;;;4.60;99.90;;;;;;4979362;29;20439;-41
2023/01/17 12:23:39;;;;;;;1.53;1.20;;;4.80;99.90;;;;;;4979930;29;20411;-50
2023/01/17 12:26:22;;;;;;;5.57;1.00;;;5.00;99.90;;;;;;4979583;29;20432;-43
2023/01/17 12:29:29;;;;;;;1.20;1.07;;;5.10;99.90;;;;;;4979484;29;21988;-45
2023/01/17 12:32:11;;;;;;;1.67;1.10;;;5.20;99.90;;;;;;4941224;29;20542;-41
2023/01/17 12:34:45;;;;;;;1.50;1.33;;;5.20;99.90;;;;;;4979307;29;20502;-51
2023/01/17 12:37:21;;;;;;;1.60;1.50;;;5.30;99.90;;;;;;4979265;29;20449;-46
2023/01/17 12:39:59;;;;;;;1.63;1.43;;;5.40;99.90;;;;;;4979517;29;20459;-42
2023/01/17 12:42:32;;;;;;;1.10;0.80;;;5.50;99.90;;;;;;4979856;29;20420;-48
2023/01/17 12:45:05;;;;;;;1.07;0.70;;;5.50;99.90;;;;;;4979290;29;20479;-44
2023/01/17 12:47:36;;;;;;;1.00;0.73;;;5.50;99.90;;;;;;4979464;29;20437;-47
2023/01/17 12:50:15;;;;;;;1.10;0.70;;;5.60;99.90;;;;;;4979275;29;20506;-45
2023/01/17 12:52:52;;;;;;;5.93;0.87;;;5.60;99.90;;;;;;4979443;29;20436;-47
2023/01/17 12:55:34;;;;;;;1.57;1.10;;;5.60;99.90;;;;;;4978941;29;20471;-46
2023/01/17 12:58:04;;;;;;;0.90;0.70;;;5.60;99.90;;;;;;4979099;29;20427;-48
2023/01/17 13:00:35;;;;;;;2.73;0.70;;;5.60;99.90;;;;;;4978912;29;20464;-44
2023/01/17 13:03:13;;;;;;;2.03;1.10;;;5.50;99.90;;;;;;4979173;29;20471;-44
2023/01/17 13:05:43;;;;;;;1.00;0.70;;;5.40;99.90;;;;;;4978788;29;20527;-41
2023/01/17 13:08:20;;;;;;;0.90;0.70;;;5.30;99.90;;;;;;4978874;29;20478;-43
2023/01/17 13:10:53;;;;;;;1.10;0.83;;;5.30;99.90;;;;;;4978756;29;20482;-41
2023/01/17 13:13:22;;;;;;;1.40;1.00;;;5.30;99.90;;;;;;4978650;28;20432;-43
2023/01/17 13:15:54;;;;;;;1.73;1.23;;;5.40;99.90;;;;;;4978627;29;20482;-44
2023/01/17 13:18:28;;;;;;;5.30;1.03;;;5.40;99.90;;;;;;4979042;29;20408;-46
2023/01/17 13:21:29;;;;;;;1.37;0.77;;;5.50;99.90;;;;;;4978502;29;20451;-45
2023/01/17 13:24:26;;;;;;;1.20;1.10;;;5.60;99.90;;;;;;4979169;29;20437;-44
2023/01/17 13:27:22;;;;;;;0.90;0.77;;;5.60;99.90;;;;;;4936461;29;20532;-43
2023/01/17 13:30:14;;;;;;;1.10;0.90;;;5.50;99.90;;;;;;4978490;29;20479;-47
2023/01/17 13:33:02;;;;;;;2.43;1.30;;;5.50;99.90;;;;;;4978349;29;20439;-42
2023/01/17 13:35:40;;;;;;;3.60;2.60;;;5.50;99.90;;;;;;4968678;29;20964;-42
2023/01/17 13:38:40;;;;;;;1.87;1.00;;;5.50;99.90;;;;;;4976459;29;20487;-47
2023/01/17 13:41:16;;;;;;;4.63;1.07;;;5.50;99.90;;;;;;4977931;29;20812;-48
2023/01/17 13:44:20;;;;;;;0.90;0.70;;;5.50;99.90;;;;;;4978280;29;20408;-47
2023/01/17 13:46:53;;;;;;;1.43;0.90;;;5.50;99.90;;;;;;4978149;29;20508;-48
2023/01/17 13:49:32;;;;;;;1.10;0.80;;;5.50;99.90;;;;;;4978698;29;20456;-39
2023/01/17 13:52:09;;;;;;;1.03;0.87;;;5.50;99.90;;;;;;4978350;28;20482;-42
2023/01/17 13:54:44;;;;;;;3.77;1.10;;;5.50;99.90;;;;;;4978499;29;20452;-45
2023/01/17 13:57:34;;;;;;;1.20;0.97;;;5.40;99.90;;;;;;4978630;29;20550;-47
2023/01/17 14:00:50;;;;;;;1.93;0.93;;;5.40;99.90;;;;;;4978203;29;20425;-46
2023/01/17 14:04:10;;;;;;;1.43;0.80;;;5.40;99.90;;;;;;4978777;29;20443;-48
2023/01/17 14:06:40;;;;;;;1.00;0.83;;;5.40;99.90;;;;;;4901174;29;20489;-45
2023/01/17 14:09:20;;;;;;;2.70;0.90;;;5.40;99.90;;;;;;4901603;29;20558;-46
2023/01/17 14:12:03;;;;;;;5.80;1.40;;;5.50;99.90;;;;;;4943304;29;20482;-43
2023/01/17 14:14:59;;;;;;;1.60;1.10;;;5.50;99.90;;;;;;4977679;29;20428;-42
2023/01/17 14:17:54;;;;;;;1.57;1.20;;;5.60;99.90;;;;;;4978051;29;20451;-42
2023/01/17 14:20:50;;;;;;;1.30;0.90;;;5.60;99.90;;;;;;4969439;29;20458;-40
2023/01/17 14:23:38;;;;;;;1.70;1.00;;;5.70;99.90;;;;;;4977976;28;20483;-44
2023/01/17 14:26:45;;;;;;;1.27;1.03;;;5.80;99.90;;;;;;4981839;29;20473;-44
2023/01/17 14:29:55;;;;;;;4.50;1.00;;;5.80;99.90;;;;;;4981724;29;20483;-46
2023/01/17 14:32:24;;;;;;;1.90;1.43;;;5.70;99.90;;;;;;4981301;29;20463;-44
2023/01/17 14:34:56;;;;;;;1.23;0.97;;;5.70;99.90;;;;;;4981702;29;20464;-49
2023/01/17 14:37:50;;;;;;;2.23;1.33;;;5.70;99.90;;;;;;4980801;29;20474;-41
2023/01/17 14:40:20;;;;;;;1.30;1.00;;;5.80;99.90;;;;;;4981412;29;20427;-43
2023/01/17 14:42:56;;;;;;;2.13;1.20;;;5.70;99.90;;;;;;4981456;29;20479;-44
2023/01/17 14:45:27;;;;;;;9.83;1.50;;;5.80;99.90;;;;;;4981089;29;20431;-44